Time;durP1;ratioP1;P1;durP2;ratioP2;P2;SDS_P1;SDS_P2;PMS_P1;PMS_P2;Temp;Humidity;BMP_temperature;BMP_pressure;BME280_temperature;BME280_humidity;BME280_pressure;Samples;Min_cycle;Max_cycle;Signal;HPM_P1;HPM_P2
2023/06/01 00:00:49;;;;;;;;;;;11.40;99.90;;;;;;4891010;29;19927;-77
2023/06/01 00:03:15;;;;;;;;;;;11.30;99.90;;;;;;4893790;29;20017;-77
2023/06/01 00:05:40;;;;;;;;;;;11.30;99.90;;;;;;4894752;29;19976;-78
2023/06/01 00:08:06;;;;;;;;;;;11.40;99.90;;;;;;4904969;29;19927;-78
2023/06/01 00:10:32;;;;;;;;;;;11.30;99.90;;;;;;4916471;29;20373;-77
2023/06/01 00:12:58;;;;;;;;;;;11.30;99.90;;;;;;4904424;29;19935;-77
2023/06/01 00:15:23;;;;;;;;;;;11.40;99.90;;;;;;4921162;29;19942;-76
2023/06/01 00:17:51;;;;;;;;;;;11.40;99.90;;;;;;4922003;29;19939;-77
2023/06/01 00:20:17;;;;;;;;;;;11.40;99.90;;;;;;4903286;29;19938;-77
2023/06/01 00:22:43;;;;;;;;;;;11.40;99.90;;;;;;4918851;29;20337;-77
2023/06/01 00:25:09;;;;;;;;;;;11.40;99.90;;;;;;4920115;29;20044;-78
2023/06/01 00:27:35;;;;;;;;;;;11.40;99.90;;;;;;4905102;29;20804;-77
2023/06/01 00:30:00;;;;;;;;;;;11.40;99.90;;;;;;4916203;29;19933;-77
2023/06/01 00:32:26;;;;;;;;;;;11.30;99.90;;;;;;4904193;29;19986;-78
2023/06/01 00:34:51;;;;;;;;;;;11.30;99.90;;;;;;4917865;29;19927;-77
2023/06/01 00:37:20;;;;;;;;;;;11.30;99.90;;;;;;4923302;29;20412;-77
2023/06/01 00:39:45;;;;;;;;;;;11.30;99.90;;;;;;4915833;29;19927;-77
2023/06/01 00:42:11;;;;;;;;;;;11.30;99.90;;;;;;4905142;29;19936;-78
2023/06/01 00:44:36;;;;;;;;;;;11.30;99.90;;;;;;4900333;29;19927;-77
2023/06/01 00:47:02;;;;;;;;;;;11.20;99.90;;;;;;4916674;29;19950;-78
2023/06/01 00:49:27;;;;;;;;;;;11.30;99.90;;;;;;4922194;29;19935;-78
2023/06/01 00:51:53;;;;;;;;;;;11.30;99.90;;;;;;4901235;29;19935;-78
2023/06/01 00:54:19;;;;;;;;;;;11.30;99.90;;;;;;4896424;29;19927;-78
2023/06/01 00:56:45;;;;;;;;;;;11.20;99.90;;;;;;4917618;29;20037;-77
2023/06/01 00:59:11;;;;;;;;;;;11.30;99.90;;;;;;4920711;29;20025;-78
2023/06/01 01:01:37;;;;;;;;;;;11.30;99.90;;;;;;4883497;29;19928;-78
2023/06/01 01:04:02;;;;;;;;;;;11.30;99.90;;;;;;4915942;29;19927;-77
2023/06/01 01:06:39;;;;;;;;;;;11.20;99.90;;;;;;4913936;29;20387;-78
2023/06/01 01:09:17;;;;;;;;;;;11.20;99.90;;;;;;4918512;29;19927;-79
2023/06/01 01:11:46;;;;;;;;;;;11.30;99.90;;;;;;4920935;29;19923;-77
2023/06/01 01:14:15;;;;;;;;;;;11.30;99.90;;;;;;4915594;29;20461;-77
2023/06/01 01:16:45;;;;;;;;;;;11.20;99.90;;;;;;4922625;29;20415;-78
2023/06/01 01:19:21;;;;;;;;;;;11.30;99.90;;;;;;4921353;29;19931;-78
2023/06/01 01:21:50;;;;;;;;;;;11.30;99.90;;;;;;4919817;29;19970;-78
2023/06/01 01:24:34;;;;;;;;;;;11.30;99.90;;;;;;4919872;29;19934;-78
2023/06/01 01:27:03;;;;;;;;;;;11.30;99.90;;;;;;4922820;29;19934;-78
2023/06/01 01:29:32;;;;;;;;;;;11.30;99.90;;;;;;4923851;29;19927;-78
2023/06/01 01:31:59;;;;;;;;;;;11.20;99.90;;;;;;4922190;29;19934;-78
2023/06/01 01:34:27;;;;;;;;;;;11.30;99.90;;;;;;4922476;29;19949;-78
2023/06/01 01:36:52;;;;;;;;;;;11.20;99.90;;;;;;4911380;29;20287;-78
2023/06/01 01:39:18;;;;;;;;;;;11.20;99.90;;;;;;4886780;29;19935;-78
2023/06/01 01:41:44;;;;;;;;;;;11.30;99.90;;;;;;4920624;29;20361;-78
2023/06/01 01:44:09;;;;;;;;;;;11.20;99.90;;;;;;4897523;29;19947;-78
2023/06/01 01:46:51;;;;;;;;;;;11.20;99.90;;;;;;4911026;29;20482;-78
2023/06/01 01:49:33;;;;;;;;;;;11.20;99.90;;;;;;4922664;29;19927;-78
2023/06/01 01:52:06;;;;;;;;;;;11.20;99.90;;;;;;4922790;29;19982;-78
2023/06/01 01:54:34;;;;;;;;;;;11.20;99.90;;;;;;4920387;29;19935;-78
2023/06/01 01:57:01;;;;;;;;;;;11.20;99.90;;;;;;4920228;29;19938;-77
2023/06/01 01:59:26;;;;;;;;;;;11.10;99.90;;;;;;4922126;29;19974;-78
2023/06/01 02:01:52;;;;;;;;;;;11.20;99.90;;;;;;4904054;29;20340;-79
2023/06/01 02:04:18;;;;;;;;;;;11.20;99.90;;;;;;4921186;29;19934;-77
2023/06/01 02:06:43;;;;;;;;;;;11.20;99.90;;;;;;4889416;29;19971;-77
2023/06/01 02:09:09;;;;;;;;;;;11.10;99.90;;;;;;4902704;29;19938;-78
2023/06/01 02:11:35;;;;;;;;;;;11.10;99.90;;;;;;4926229;29;19927;-77
2023/06/01 02:14:01;;;;;;;;;;;11.20;99.90;;;;;;4926167;29;19927;-78
2023/06/01 02:16:26;;;;;;;;;;;11.20;99.90;;;;;;4887595;29;19931;-77
2023/06/01 02:18:52;;;;;;;;;;;11.20;99.90;;;;;;4921788;29;19927;-78
2023/06/01 02:21:18;;;;;;;;;;;11.20;99.90;;;;;;4922244;29;20409;-78
2023/06/01 02:23:43;;;;;;;;;;;11.20;99.90;;;;;;4909239;29;19983;-76
2023/06/01 02:26:09;;;;;;;;;;;11.30;99.90;;;;;;4904509;29;20321;-77
2023/06/01 02:28:41;;;;;;;;;;;11.20;99.90;;;;;;4921751;29;20008;-78
2023/06/01 02:31:06;;;;;;;;;;;11.20;99.90;;;;;;4925597;29;19927;-78
2023/06/01 02:33:32;;;;;;;;;;;11.20;99.90;;;;;;4909024;29;19995;-78
2023/06/01 02:35:58;;;;;;;;;;;11.20;99.90;;;;;;4907524;29;19979;-77
2023/06/01 02:38:23;;;;;;;;;;;11.20;99.90;;;;;;4915084;29;19960;-77
2023/06/01 02:40:49;;;;;;;;;;;11.20;99.90;;;;;;4906452;29;19942;-77
2023/06/01 02:43:15;;;;;;;;;;;11.20;99.90;;;;;;4903230;29;19942;-78
2023/06/01 02:45:40;;;;;;;;;;;11.20;99.90;;;;;;4909562;29;19928;-77
2023/06/01 02:48:06;;;;;;;;;;;11.20;99.90;;;;;;4920380;29;19967;-77
2023/06/01 02:50:31;;;;;;;;;;;11.30;99.90;;;;;;4921705;29;19934;-78
2023/06/01 02:52:57;;;;;;;;;;;11.30;99.90;;;;;;4920707;29;19934;-78
2023/06/01 02:55:22;;;;;;;;;;;11.30;99.90;;;;;;4921506;29;19951;-77
2023/06/01 02:57:48;;;;;;;;;;;11.20;99.90;;;;;;4906482;29;20007;-78
2023/06/01 03:00:17;;;;;;;;;;;11.30;99.90;;;;;;4921582;29;19927;-77
2023/06/01 03:02:43;;;;;;;;;;;11.30;99.90;;;;;;4919826;29;19978;-78
2023/06/01 03:05:08;;;;;;;;;;;11.20;99.90;;;;;;4920703;29;19935;-78
2023/06/01 03:07:34;;;;;;;;;;;11.20;99.90;;;;;;4904334;29;19927;-78
2023/06/01 03:09:59;;;;;;;;;;;11.30;99.90;;;;;;4903965;29;20018;-77
2023/06/01 03:12:25;;;;;;;;;;;11.30;99.90;;;;;;4903760;29;19927;-77
2023/06/01 03:14:50;;;;;;;;;;;11.30;99.90;;;;;;4903383;29;19927;-78
2023/06/01 03:17:16;;;;;;;;;;;11.20;99.90;;;;;;4913546;29;19927;-77
2023/06/01 03:19:42;;;;;;;;;;;11.20;99.90;;;;;;4901112;29;19927;-78
2023/06/01 03:22:07;;;;;;;;;;;11.20;99.90;;;;;;4917506;29;19933;-78
2023/06/01 03:24:34;;;;;;;;;;;11.20;99.90;;;;;;4921576;29;20072;-78
2023/06/01 03:27:00;;;;;;;;;;;11.20;99.90;;;;;;4921154;29;20014;-78
2023/06/01 03:29:26;;;;;;;;;;;11.20;99.90;;;;;;4922171;29;19927;-78
2023/06/01 03:31:52;;;;;;;;;;;11.20;99.90;;;;;;4918083;29;20452;-78
2023/06/01 03:34:17;;;;;;;;;;;11.20;99.90;;;;;;4920664;29;19934;-78
2023/06/01 03:36:47;;;;;;;;;;;11.20;99.90;;;;;;4918383;29;20024;-78
2023/06/01 03:39:15;;;;;;;;;;;11.20;99.90;;;;;;4916791;29;20010;-77
2023/06/01 03:41:42;;;;;;;;;;;11.20;99.90;;;;;;4912541;29;19932;-78
2023/06/01 03:44:07;;;;;;;;;;;11.20;99.90;;;;;;4917762;29;19970;-78
2023/06/01 03:46:33;;;;;;;;;;;11.20;99.90;;;;;;4916090;29;20313;-78
2023/06/01 03:48:58;;;;;;;;;;;11.30;99.90;;;;;;4916620;29;19927;-78
2023/06/01 03:51:24;;;;;;;;;;;11.30;99.90;;;;;;4917222;29;19927;-78
2023/06/01 03:53:49;;;;;;;;;;;11.20;99.90;;;;;;4918917;29;19934;-78
2023/06/01 03:56:16;;;;;;;;;;;11.30;99.90;;;;;;4915744;29;19927;-79
2023/06/01 03:58:41;;;;;;;;;;;11.30;99.90;;;;;;4916266;29;19955;-78
2023/06/01 04:01:07;;;;;;;;;;;11.30;99.90;;;;;;4921380;29;19927;-79
2023/06/01 04:03:33;;;;;;;;;;;11.30;99.90;;;;;;4919281;29;19933;-78
2023/06/01 04:05:59;;;;;;;;;;;11.20;99.90;;;;;;4911768;29;20014;-78
2023/06/01 04:08:25;;;;;;;;;;;11.30;99.90;;;;;;4923124;29;19927;-79
2023/06/01 04:10:51;;;;;;;;;;;11.50;99.90;;;;;;4918477;29;20001;-78
2023/06/01 04:13:16;;;;;;;;;;;11.30;99.90;;;;;;4919972;29;19927;-78
2023/06/01 04:15:42;;;;;;;;;;;11.20;99.90;;;;;;4917962;29;20301;-78
2023/06/01 04:18:07;;;;;;;;;;;11.30;99.90;;;;;;4919252;29;19927;-78
2023/06/01 04:20:34;;;;;;;;;;;11.20;99.90;;;;;;4917958;29;19927;-78
2023/06/01 04:23:00;;;;;;;;;;;11.30;99.90;;;;;;4917887;29;19927;-78
2023/06/01 04:25:26;;;;;;;;;;;11.20;99.90;;;;;;4920292;29;19974;-78
2023/06/01 04:27:51;;;;;;;;;;;11.30;99.90;;;;;;4911123;29;19927;-78
2023/06/01 04:30:17;;;;;;;;;;;11.30;99.90;;;;;;4926279;29;19931;-78
2023/06/01 04:32:47;;;;;;;;;;;11.30;99.90;;;;;;4917906;29;19958;-78
2023/06/01 04:35:13;;;;;;;;;;;11.30;99.90;;;;;;4922169;29;19927;-77
2023/06/01 04:37:40;;;;;;;;;;;11.30;99.90;;;;;;4920463;29;20373;-79
2023/06/01 04:40:09;;;;;;;;;;;11.40;99.90;;;;;;4923882;29;19927;-78
2023/06/01 04:42:35;;;;;;;;;;;11.20;99.90;;;;;;4925280;29;19927;-78
2023/06/01 04:45:04;;;;;;;;;;;11.20;99.90;;;;;;4917673;29;20408;-78
2023/06/01 04:47:31;;;;;;;;;;;11.20;99.90;;;;;;4919459;29;19994;-78
2023/06/01 04:49:56;;;;;;;;;;;11.10;99.90;;;;;;4900291;29;20368;-79
2023/06/01 04:52:22;;;;;;;;;;;11.20;99.90;;;;;;4924523;29;19966;-79
2023/06/01 04:54:51;;;;;;;;;;;11.20;99.90;;;;;;4917992;29;19934;-78
2023/06/01 04:57:18;;;;;;;;;;;11.30;99.90;;;;;;4912769;29;20373;-78
2023/06/01 04:59:44;;;;;;;;;;;11.20;99.90;;;;;;4920462;29;19934;-79
2023/06/01 05:02:10;;;;;;;;;;;11.20;99.90;;;;;;4920501;29;20709;-79
2023/06/01 05:04:36;;;;;;;;;;;11.20;99.90;;;;;;4918929;29;19966;-78
2023/06/01 05:07:01;;;;;;;;;;;11.20;99.90;;;;;;4905213;29;19933;-78
2023/06/01 05:09:27;;;;;;;;;;;11.20;99.90;;;;;;4908394;29;19928;-79
2023/06/01 05:11:52;;;;;;;;;;;11.20;99.90;;;;;;4902750;29;20377;-78
2023/06/01 05:14:20;;;;;;;;;;;11.30;99.90;;;;;;4902812;29;19975;-79
2023/06/01 05:16:48;;;;;;;;;;;11.30;99.90;;;;;;4870755;29;19927;-78
2023/06/01 05:22:16;;;;;;;;;;;11.20;99.90;;;;;;4886096;29;19942;-77
2023/06/01 05:24:42;;;;;;;;;;;11.20;99.90;;;;;;4903273;29;20344;-77
2023/06/01 05:27:07;;;;;;;;;;;11.20;99.90;;;;;;4901397;29;19927;-77
2023/06/01 05:29:33;;;;;;;;;;;11.20;99.90;;;;;;4901349;29;20022;-77
2023/06/01 05:31:58;;;;;;;;;;;11.20;99.90;;;;;;4899758;29;20330;-77
2023/06/01 05:34:24;;;;;;;;;;;11.30;99.90;;;;;;4902376;29;19974;-77
2023/06/01 05:36:50;;;;;;;;;;;11.20;99.90;;;;;;4897544;29;20002;-77
2023/06/01 05:39:15;;;;;;;;;;;11.20;99.90;;;;;;4898584;29;19971;-79
2023/06/01 05:41:41;;;;;;;;;;;11.30;99.90;;;;;;4888549;29;19962;-78
2023/06/01 05:44:07;;;;;;;;;;;11.30;99.90;;;;;;4902231;29;20044;-78
2023/06/01 05:46:33;;;;;;;;;;;11.30;99.90;;;;;;4904574;29;19935;-77
2023/06/01 05:48:59;;;;;;;;;;;11.30;99.90;;;;;;4886231;29;19927;-77
2023/06/01 05:51:24;;;;;;;;;;;11.30;99.90;;;;;;4896388;29;20425;-77
2023/06/01 05:53:50;;;;;;;;;;;11.30;99.90;;;;;;4901093;29;19936;-79
2023/06/01 05:56:16;;;;;;;;;;;11.60;99.90;;;;;;4897070;29;19928;-78
2023/06/01 05:58:42;;;;;;;;;;;11.30;99.90;;;;;;4896589;29;19931;-78
2023/06/01 06:01:09;;;;;;;;;;;11.40;99.90;;;;;;4906865;29;19982;-77
2023/06/01 06:03:34;;;;;;;;;;;11.40;99.90;;;;;;4899163;29;20278;-77
2023/06/01 06:06:00;;;;;;;;;;;11.50;99.90;;;;;;4897195;29;19934;-77
2023/06/01 06:08:27;;;;;;;;;;;11.50;99.90;;;;;;4881707;29;19927;-77
2023/06/01 06:10:52;;;;;;;;;;;11.40;99.90;;;;;;4899941;29;20015;-78
2023/06/01 06:13:18;;;;;;;;;;;11.50;99.90;;;;;;4904367;29;19978;-78
2023/06/01 06:15:43;;;;;;;;;;;11.50;99.90;;;;;;4901848;29;19934;-79
2023/06/01 06:18:09;;;;;;;;;;;11.50;99.90;;;;;;4901712;29;19931;-78
2023/06/01 06:20:34;;;;;;;;;;;11.50;99.90;;;;;;4903733;29;19955;-79
2023/06/01 06:23:00;;;;;;;;;;;11.50;99.90;;;;;;4902701;29;19959;-77
2023/06/01 06:25:25;;;;;;;;;;;11.50;99.90;;;;;;4904265;29;19956;-77
2023/06/01 06:27:51;;;;;;;;;;;11.50;99.90;;;;;;4905103;29;19931;-77
2023/06/01 06:30:17;;;;;;;;;;;11.50;99.90;;;;;;4903332;29;19928;-77
2023/06/01 06:32:42;;;;;;;;;;;11.40;99.90;;;;;;4899240;29;19970;-77
2023/06/01 06:35:12;;;;;;;;;;;11.60;99.90;;;;;;4899025;29;19927;-78
2023/06/01 06:37:39;;;;;;;;;;;11.50;99.90;;;;;;4877380;29;19927;-78
2023/06/01 06:40:06;;;;;;;;;;;11.50;99.90;;;;;;4906844;29;20392;-78
2023/06/01 06:42:32;;;;;;;;;;;11.50;99.90;;;;;;4904062;29;20022;-78
2023/06/01 06:44:57;;;;;;;;;;;11.50;99.90;;;;;;4912652;29;19927;-78
2023/06/01 06:47:24;;;;;;;;;;;11.50;99.90;;;;;;4912495;29;19991;-79
2023/06/01 06:49:51;;;;;;;;;;;11.50;99.90;;;;;;4870442;29;19936;-78
2023/06/01 06:52:16;;;;;;;;;;;11.50;99.90;;;;;;4885658;29;19991;-78
2023/06/01 06:54:42;;;;;;;;;;;11.90;99.90;;;;;;4885450;29;20022;-78
2023/06/01 06:57:08;;;;;;;;;;;12.00;99.90;;;;;;4894230;29;19928;-78
2023/06/01 06:59:34;;;;;;;;;;;11.50;99.90;;;;;;4899976;29;20358;-78
2023/06/01 07:01:59;;;;;;;;;;;11.50;99.90;;;;;;4901302;29;19931;-78
2023/06/01 07:04:25;;;;;;;;;;;11.50;99.90;;;;;;4884406;29;19927;-78
2023/06/01 07:06:51;;;;;;;;;;;11.50;99.90;;;;;;4901728;29;19927;-77
2023/06/01 07:09:17;;;;;;;;;;;11.50;99.90;;;;;;4899043;29;19927;-77
2023/06/01 07:11:45;;;;;;;;;;;11.50;99.90;;;;;;4899998;29;20333;-78
2023/06/01 07:14:10;;;;;;;;;;;11.50;99.90;;;;;;4900444;29;20038;-78
2023/06/01 07:16:36;;;;;;;;;;;11.50;99.90;;;;;;4900785;29;19950;-77
2023/06/01 07:19:02;;;;;;;;;;;11.60;99.90;;;;;;4899846;29;19932;-77
2023/06/01 07:21:28;;;;;;;;;;;11.60;99.90;;;;;;4900596;29;19928;-77
2023/06/01 07:23:53;;;;;;;;;;;11.60;99.90;;;;;;4900263;29;20377;-77
2023/06/01 07:26:19;;;;;;;;;;;11.60;99.90;;;;;;4898399;29;19931;-77
2023/06/01 07:28:46;;;;;;;;;;;11.70;99.90;;;;;;4901604;29;19927;-77
2023/06/01 07:31:11;;;;;;;;;;;11.70;99.90;;;;;;4882871;29;19931;-77
2023/06/01 07:33:37;;;;;;;;;;;11.70;99.90;;;;;;4883288;29;20001;-77
2023/06/01 07:36:03;;;;;;;;;;;11.80;99.90;;;;;;4884726;29;19934;-77
2023/06/01 07:38:28;;;;;;;;;;;11.80;99.90;;;;;;4892892;29;19928;-78
2023/06/01 07:40:54;;;;;;;;;;;11.80;99.90;;;;;;4883175;29;20317;-78
2023/06/01 07:43:20;;;;;;;;;;;11.70;99.90;;;;;;4886592;29;19939;-78
2023/06/01 07:45:45;;;;;;;;;;;11.80;99.90;;;;;;4902845;29;19998;-78
2023/06/01 07:48:11;;;;;;;;;;;11.80;99.90;;;;;;4899452;29;19952;-78
2023/06/01 07:50:37;;;;;;;;;;;11.80;99.90;;;;;;4884544;29;19927;-78
2023/06/01 07:53:02;;;;;;;;;;;11.80;99.90;;;;;;4886656;29;19928;-78
2023/06/01 07:55:28;;;;;;;;;;;11.80;99.90;;;;;;4892358;29;19935;-79
2023/06/01 07:57:54;;;;;;;;;;;11.80;99.90;;;;;;4905784;29;20374;-78
2023/06/01 08:00:19;;;;;;;;;;;11.80;99.90;;;;;;4901732;29;19931;-77
2023/06/01 08:02:45;;;;;;;;;;;11.80;99.90;;;;;;4904662;29;19939;-78
2023/06/01 08:05:11;;;;;;;;;;;11.80;99.90;;;;;;4904410;29;19931;-77
2023/06/01 08:07:37;;;;;;;;;;;11.90;99.90;;;;;;4905625;29;20283;-78
2023/06/01 08:10:05;;;;;;;;;;;11.90;99.90;;;;;;4906331;29;20421;-77
2023/06/01 08:12:31;;;;;;;;;;;12.00;99.90;;;;;;4882821;29;19935;-77
2023/06/01 08:14:57;;;;;;;;;;;12.00;99.90;;;;;;4899075;29;19934;-77
2023/06/01 08:17:23;;;;;;;;;;;12.00;99.90;;;;;;4900344;29;19928;-77
2023/06/01 08:19:49;;;;;;;;;;;12.00;99.90;;;;;;4899661;29;19928;-76
2023/06/01 08:22:16;;;;;;;;;;;12.00;99.90;;;;;;4899554;29;19935;-77
2023/06/01 08:24:42;;;;;;;;;;;11.90;99.90;;;;;;4893675;29;19931;-76
2023/06/01 08:27:17;;;;;;;;;;;11.90;99.90;;;;;;4900032;29;20294;-77
2023/06/01 08:29:44;;;;;;;;;;;12.00;99.90;;;;;;4899802;29;19934;-77
2023/06/01 08:32:11;;;;;;;;;;;12.00;99.90;;;;;;4898695;29;19932;-77
2023/06/01 08:34:36;;;;;;;;;;;11.90;99.90;;;;;;4874895;29;20406;-77
2023/06/01 08:37:02;;;;;;;;;;;12.00;99.90;;;;;;4882465;29;20022;-77
2023/06/01 08:39:27;;;;;;;;;;;11.90;99.90;;;;;;4896933;29;20374;-76
2023/06/01 08:42:11;;;;;;;;;;;11.90;99.90;;;;;;4896773;29;20023;-76
2023/06/01 08:44:38;;;;;;;;;;;12.00;99.90;;;;;;4900453;29;19928;-77
2023/06/01 08:47:04;;;;;;;;;;;12.00;99.90;;;;;;4901999;29;19977;-77
2023/06/01 08:49:30;;;;;;;;;;;12.10;99.90;;;;;;4903563;29;19961;-77
2023/06/01 08:51:56;;;;;;;;;;;12.10;99.90;;;;;;4902798;29;19927;-77
2023/06/01 08:54:22;;;;;;;;;;;12.00;99.90;;;;;;4890828;29;20379;-77
2023/06/01 08:56:48;;;;;;;;;;;12.00;99.90;;;;;;4885221;29;19934;-77
2023/06/01 08:59:13;;;;;;;;;;;12.10;99.90;;;;;;4901283;29;19982;-78
2023/06/01 09:01:39;;;;;;;;;;;12.10;99.90;;;;;;4900001;29;20437;-77
2023/06/01 09:04:05;;;;;;;;;;;12.20;99.90;;;;;;4875403;29;19927;-77
2023/06/01 09:06:30;;;;;;;;;;;12.20;99.90;;;;;;4870215;29;19934;-76
2023/06/01 09:08:56;;;;;;;;;;;12.20;99.90;;;;;;4890493;29;20401;-77
2023/06/01 09:11:21;;;;;;;;;;;12.10;99.90;;;;;;4917562;29;19975;-76
2023/06/01 09:13:47;;;;;;;;;;;12.20;99.90;;;;;;4911456;29;19978;-77
2023/06/01 09:16:12;;;;;;;;;;;12.20;99.90;;;;;;4900790;29;19977;-77
2023/06/01 09:18:53;;;;;;;;;;;12.20;99.90;;;;;;4896918;29;19966;-77
2023/06/01 09:21:19;;;;;;;;;;;12.30;99.90;;;;;;4910422;29;19998;-78
2023/06/01 09:23:45;;;;;;;;;;;12.40;99.90;;;;;;4917925;29;19977;-76
2023/06/01 09:26:11;;;;;;;;;;;12.40;99.90;;;;;;4912328;29;19931;-77
2023/06/01 09:28:53;;;;;;;;;;;12.40;99.90;;;;;;4917860;29;19928;-77
2023/06/01 09:31:37;;;;;;;;;;;12.40;99.90;;;;;;4913755;29;19980;-77
2023/06/01 09:34:03;;;;;;;;;;;12.40;99.90;;;;;;4900136;29;20386;-76
2023/06/01 09:36:28;;;;;;;;;;;12.40;99.90;;;;;;4896710;29;19927;-75
2023/06/01 09:39:20;;;;;;;;;;;12.40;99.90;;;;;;4912887;29;19935;-77
2023/06/01 09:41:45;;;;;;;;;;;12.40;99.90;;;;;;4895343;29;19928;-77
2023/06/01 09:44:13;;;;;;;;;;;12.40;99.90;;;;;;4900050;29;20275;-77
2023/06/01 09:46:49;;;;;;;;;;;12.40;99.90;;;;;;4886627;29;19979;-77
2023/06/01 09:49:19;;;;;;;;;;;12.40;99.90;;;;;;4920118;29;19927;-77
2023/06/01 09:51:45;;;;;;;;;;;12.30;99.90;;;;;;4904325;29;19934;-77
2023/06/01 09:54:20;;;;;;;;;;;12.50;99.90;;;;;;4886379;29;19931;-77
2023/06/01 09:56:46;;;;;;;;;;;12.50;99.90;;;;;;4904084;29;19982;-77
2023/06/01 09:59:11;;;;;;;;;;;12.50;99.90;;;;;;4921202;29;20333;-77
2023/06/01 10:01:37;;;;;;;;;;;12.40;99.90;;;;;;4921360;29;19930;-77
2023/06/01 10:04:04;;;;;;;;;;;12.50;99.90;;;;;;4921948;29;19934;-77
2023/06/01 10:06:33;;;;;;;;;;;12.50;99.90;;;;;;4922163;29;19931;-77
2023/06/01 10:08:59;;;;;;;;;;;12.60;99.90;;;;;;4917586;29;19927;-77
2023/06/01 10:11:27;;;;;;;;;;;12.60;99.90;;;;;;4894742;29;19934;-82
2023/06/01 10:13:52;;;;;;;;;;;12.60;99.90;;;;;;4915132;29;19927;-81
2023/06/01 10:16:18;;;;;;;;;;;12.70;99.90;;;;;;4934763;29;19959;-80
2023/06/01 10:18:45;;;;;;;;;;;12.70;99.90;;;;;;4938680;29;19928;-83
2023/06/01 10:21:10;;;;;;;;;;;12.70;99.90;;;;;;4936416;29;19938;-80
2023/06/01 10:23:37;;;;;;;;;;;12.80;99.90;;;;;;4923521;29;19999;-83
2023/06/01 10:26:12;;;;;;;;;;;12.80;99.90;;;;;;4940165;29;19931;-82
2023/06/01 10:28:38;;;;;;;;;;;12.80;99.90;;;;;;4923704;29;19990;-82
2023/06/01 10:31:23;;;;;;;;;;;12.80;99.90;;;;;;4899776;29;19927;-83
2023/06/01 10:33:55;;;;;;;;;;;12.90;99.90;;;;;;4931008;29;19927;-85
2023/06/01 10:36:21;;;;;;;;;;;12.80;99.90;;;;;;4918969;29;19927;-82
2023/06/01 10:38:46;;;;;;;;;;;12.90;99.90;;;;;;4918427;29;19927;-84
2023/06/01 10:41:26;;;;;;;;;;;12.90;99.90;;;;;;4920718;29;19994;-82
2023/06/01 10:43:52;;;;;;;;;;;13.00;99.90;;;;;;4921845;29;20404;-82
2023/06/01 10:46:32;;;;;;;;;;;13.10;99.90;;;;;;4923704;29;19931;-81
2023/06/01 10:48:58;;;;;;;;;;;13.20;99.90;;;;;;4920452;29;19919;-83
2023/06/01 10:51:24;;;;;;;;;;;13.20;99.90;;;;;;4937699;29;19927;-83
2023/06/01 10:53:51;;;;;;;;;;;13.20;99.90;;;;;;4940262;29;19923;-82
2023/06/01 10:56:24;;;;;;;;;;;13.10;99.90;;;;;;4941331;29;19934;-80
2023/06/01 10:59:08;;;;;;;;;;;13.10;99.90;;;;;;4941485;29;19927;-81
2023/06/01 11:01:35;;;;;;;;;;;13.10;99.90;;;;;;4936309;29;19927;-82
2023/06/01 11:04:01;;;;;;;;;;;13.20;99.90;;;;;;4930681;29;19931;-83
2023/06/01 11:06:31;;;;;;;;;;;13.20;99.90;;;;;;4929310;29;19928;-82
2023/06/01 11:08:58;;;;;;;;;;;13.20;99.90;;;;;;4897406;29;20013;-83
2023/06/01 11:11:43;;;;;;;;;;;13.30;99.90;;;;;;4929671;29;20014;-84
2023/06/01 11:14:11;;;;;;;;;;;13.30;99.90;;;;;;4930728;29;19934;-82
2023/06/01 11:16:36;;;;;;;;;;;13.40;99.90;;;;;;4899820;29;19927;-81
2023/06/01 11:19:03;;;;;;;;;;;13.50;99.90;;;;;;4936607;29;19930;-82
2023/06/01 11:21:30;;;;;;;;;;;13.60;99.90;;;;;;4926738;29;19934;-82
2023/06/01 11:23:56;;;;;;;;;;;13.60;99.90;;;;;;4897686;29;19935;-83
2023/06/01 11:26:25;;;;;;;;;;;13.70;99.90;;;;;;4912890;29;20434;-82
2023/06/01 11:28:51;;;;;;;;;;;13.70;99.90;;;;;;4914362;29;19938;-82
2023/06/01 11:31:18;;;;;;;;;;;13.70;99.90;;;;;;4902123;29;19923;-82
2023/06/01 11:33:48;;;;;;;;;;;13.70;99.90;;;;;;4886912;29;19958;-83
2023/06/01 11:36:16;;;;;;;;;;;13.60;99.90;;;;;;4903107;29;19988;-81
2023/06/01 11:38:42;;;;;;;;;;;13.60;99.90;;;;;;4903200;29;19928;-82
2023/06/01 11:41:08;;;;;;;;;;;13.60;99.90;;;;;;4919738;29;19934;-81
2023/06/01 11:43:34;;;;;;;;;;;13.60;99.90;;;;;;4924845;29;19927;-81
2023/06/01 11:46:04;;;;;;;;;;;13.40;99.90;;;;;;4938325;29;19960;-82
2023/06/01 11:48:29;;;;;;;;;;;13.40;99.90;;;;;;4935867;29;19927;-84
2023/06/01 11:50:55;;;;;;;;;;;13.30;99.90;;;;;;4938880;29;19927;-83
2023/06/01 11:53:21;;;;;;;;;;;13.20;99.90;;;;;;4938124;29;19934;-81
2023/06/01 11:55:48;;;;;;;;;;;13.20;99.90;;;;;;4937721;29;19934;-82
2023/06/01 11:58:19;;;;;;;;;;;13.10;99.90;;;;;;4918006;29;19912;-82
2023/06/01 12:00:46;;;;;;;;;;;13.20;99.90;;;;;;4902913;29;19978;-83
2023/06/01 12:03:11;;;;;;;;;;;13.20;99.90;;;;;;4918413;29;19965;-83
2023/06/01 12:05:37;;;;;;;;;;;13.20;99.90;;;;;;4927158;29;19927;-82
2023/06/01 12:08:04;;;;;;;;;;;13.20;99.90;;;;;;4920250;29;19938;-84
2023/06/01 12:10:30;;;;;;;;;;;13.30;99.90;;;;;;4937127;29;19994;-83
2023/06/01 12:12:56;;;;;;;;;;;13.90;99.90;;;;;;4936596;29;19928;-83
2023/06/01 12:15:21;;;;;;;;;;;13.30;99.90;;;;;;4918693;29;19934;-83
2023/06/01 12:17:49;;;;;;;;;;;13.80;99.90;;;;;;4934382;29;19951;-83
2023/06/01 12:20:30;;;;;;;;;;;13.10;99.90;;;;;;4936615;29;19969;-84
2023/06/01 12:22:56;;;;;;;;;;;13.20;99.90;;;;;;4937201;29;19927;-82
2023/06/01 12:25:22;;;;;;;;;;;13.30;99.90;;;;;;4937925;29;19933;-84
2023/06/01 12:28:01;;;;;;;;;;;13.20;99.90;;;;;;4898756;29;19983;-82
2023/06/01 12:30:28;;;;;;;;;;;13.20;99.90;;;;;;4894356;29;19951;-84
2023/06/01 12:32:53;;;;;;;;;;;13.10;99.90;;;;;;4934395;29;19929;-82
2023/06/01 12:35:23;;;;;;;;;;;13.10;99.90;;;;;;4914789;29;19951;-83
2023/06/01 12:38:09;;;;;;;;;;;13.10;99.90;;;;;;4928644;29;19933;-83
2023/06/01 12:40:35;;;;;;;;;;;13.10;99.90;;;;;;4916138;29;19911;-83
2023/06/01 12:43:01;;;;;;;;;;;13.10;99.90;;;;;;4945920;29;19936;-83
2023/06/01 12:45:36;;;;;;;;;;;13.10;99.90;;;;;;4937795;29;20215;-84
2023/06/01 12:48:02;;;;;;;;;;;12.80;99.90;;;;;;4940298;29;19927;-83
2023/06/01 12:50:28;;;;;;;;;;;12.70;99.90;;;;;;4937111;29;19947;-83
2023/06/01 12:52:53;;;;;;;;;;;12.70;99.90;;;;;;4931903;29;20007;-83
2023/06/01 12:55:20;;;;;;;;;;;12.80;99.90;;;;;;4915127;29;19991;-84
2023/06/01 12:57:53;;;;;;;;;;;12.80;99.90;;;;;;4937145;29;20312;-83
2023/06/01 13:00:19;;;;;;;;;;;12.70;99.90;;;;;;4917909;29;19927;-82
2023/06/01 13:02:48;;;;;;;;;;;12.70;99.90;;;;;;4937112;29;19927;-84
2023/06/01 13:05:16;;;;;;;;;;;12.70;99.90;;;;;;4908786;29;19934;-83
2023/06/01 13:07:42;;;;;;;;;;;12.60;99.90;;;;;;4934059;29;19935;-84
2023/06/01 13:10:09;;;;;;;;;;;12.60;99.90;;;;;;4936133;29;19930;-84
2023/06/01 13:12:35;;;;;;;;;;;12.70;99.90;;;;;;4917848;29;19933;-85
2023/06/01 13:15:00;;;;;;;;;;;12.70;99.90;;;;;;4887594;29;19928;-84
2023/06/01 13:17:26;;;;;;;;;;;12.70;99.90;;;;;;4903305;29;19952;-84
2023/06/01 13:19:52;;;;;;;;;;;12.80;99.90;;;;;;4886523;29;19944;-83
2023/06/01 13:22:18;;;;;;;;;;;12.80;99.90;;;;;;4905076;29;19915;-82
2023/06/01 13:24:44;;;;;;;;;;;12.80;99.90;;;;;;4925381;29;19911;-83
2023/06/01 13:27:10;;;;;;;;;;;13.00;99.90;;;;;;4941619;29;19945;-83
2023/06/01 13:29:35;;;;;;;;;;;13.10;99.90;;;;;;4925663;29;19915;-83
2023/06/01 13:32:01;;;;;;;;;;;13.20;99.90;;;;;;4941938;29;19931;-83
2023/06/01 13:34:26;;;;;;;;;;;13.60;99.90;;;;;;4937180;29;19927;-84
2023/06/01 13:36:52;;;;;;;;;;;13.50;99.90;;;;;;4912476;29;19928;-83
2023/06/01 13:39:17;;;;;;;;;;;13.40;99.90;;;;;;4918824;29;19928;-84
2023/06/01 13:41:43;;;;;;;;;;;13.50;99.90;;;;;;4916877;29;19934;-84
2023/06/01 13:44:08;;;;;;;;;;;13.40;99.90;;;;;;4927647;29;19927;-83
2023/06/01 13:46:34;;;;;;;;;;;13.40;99.90;;;;;;4916916;29;19930;-84
2023/06/01 13:48:59;;;;;;;;;;;13.40;99.90;;;;;;4916176;29;20016;-84
2023/06/01 13:51:25;;;;;;;;;;;13.30;99.90;;;;;;4919937;29;19931;-84
2023/06/01 13:53:51;;;;;;;;;;;13.20;99.90;;;;;;4922848;29;19937;-82
2023/06/01 13:56:16;;;;;;;;;;;13.20;99.90;;;;;;4910808;29;19927;-82
2023/06/01 13:58:42;;;;;;;;;;;13.10;99.90;;;;;;4915519;29;19923;-83
2023/06/01 14:01:07;;;;;;;;;;;13.00;99.90;;;;;;4937110;29;19927;-83
2023/06/01 14:03:33;;;;;;;;;;;13.00;99.90;;;;;;4943285;29;19973;-83
2023/06/01 14:05:58;;;;;;;;;;;13.00;99.90;;;;;;4920461;29;19932;-83
2023/06/01 14:08:24;;;;;;;;;;;13.10;99.90;;;;;;4942543;29;19994;-83
2023/06/01 14:10:50;;;;;;;;;;;13.00;99.90;;;;;;4943104;29;19926;-80
2023/06/01 14:13:15;;;;;;;;;;;13.10;99.90;;;;;;4924831;29;19934;-82
2023/06/01 14:15:42;;;;;;;;;;;13.50;99.90;;;;;;4940192;29;20012;-82
2023/06/01 14:18:08;;;;;;;;;;;13.00;99.90;;;;;;4940921;29;19912;-81